createdAt,value
2018-11-06T00:00:06.549Z,1.8
2018-11-06T00:00:56.906Z,1.8
2018-11-06T00:01:47.501Z,1.8
2018-11-06T00:02:36.969Z,1.8
2018-11-06T00:03:27.391Z,1.8
2018-11-06T00:04:17.118Z,1.8
2018-11-06T00:05:07.203Z,1.8
2018-11-06T00:05:56.786Z,1.8
2018-11-06T00:06:47.315Z,1.8
2018-11-06T00:25:04.350Z,1.7
2018-11-06T00:25:54.501Z,1.7
2018-11-06T00:26:44.225Z,1.6
2018-11-06T00:27:33.810Z,1.6
2018-11-06T00:28:24.065Z,1.6
2018-11-06T00:29:13.577Z,1.7
2018-11-06T00:30:04.447Z,1.7
2018-11-06T00:30:54.272Z,1.6
2018-11-06T00:31:44.135Z,1.6
2018-11-06T00:32:34.642Z,1.6
2018-11-06T00:33:23.872Z,1.6
2018-11-06T00:34:15.033Z,1.6
2018-11-06T00:35:04.847Z,1.6
2018-11-06T00:35:54.612Z,1.6
2018-11-06T00:36:44.956Z,1.6
2018-11-06T00:37:35.026Z,1.6
2018-11-06T00:38:23.916Z,1.6
2018-11-06T00:39:14.584Z,1.6
2018-11-06T00:40:04.331Z,1.6
2018-11-06T00:40:54.789Z,1.6
2018-11-06T00:41:45.047Z,1.6
2018-11-06T00:42:34.619Z,1.6
2018-11-06T00:43:24.988Z,1.6
2018-11-06T00:44:15.226Z,1.5
2018-11-06T00:45:05.003Z,1.6
2018-11-06T00:45:55.234Z,1.6
2018-11-06T00:46:44.724Z,1.6
2018-11-06T00:47:35.518Z,1.6
2018-11-06T00:48:25.845Z,1.6
2018-11-06T00:49:15.578Z,1.6
2018-11-06T00:50:05.631Z,1.5
2018-11-06T00:50:56.231Z,1.5
2018-11-06T00:51:45.788Z,1.5
2018-11-06T00:52:34.963Z,1.5
2018-11-06T00:53:25.618Z,1.5
2018-11-06T00:54:15.659Z,1.5
2018-11-06T00:55:05.718Z,1.4
2018-11-06T00:55:56.087Z,1.4
2018-11-06T00:56:45.541Z,1.4
2018-11-06T00:57:36.203Z,1.4
2018-11-06T00:58:26.508Z,1.4
2018-11-06T00:59:16.438Z,1.4
2018-11-06T01:00:06.181Z,1.4
2018-11-06T01:00:56.232Z,1.4
2018-11-06T01:01:46.573Z,1.4
2018-11-06T01:02:36.263Z,1.4
2018-11-06T01:03:26.640Z,1.4
2018-11-06T01:04:16.977Z,1.3
2018-11-06T01:05:06.743Z,1.3
2018-11-06T01:05:57.105Z,1.3
2018-11-06T01:06:46.640Z,1.3
2018-11-06T01:07:36.961Z,1.2
2018-11-06T01:08:27.257Z,1.2
2018-11-06T01:09:16.552Z,1.1
2018-11-06T01:10:06.809Z,1.2
2018-11-06T01:10:56.980Z,1.1
2018-11-06T01:11:47.227Z,1.1
2018-11-06T01:12:37.832Z,1.1
2018-11-06T01:13:27.637Z,1.1
2018-11-06T01:14:17.157Z,1.1
2018-11-06T01:15:07.474Z,1.1
2018-11-06T01:15:57.217Z,1.1
2018-11-06T01:16:47.598Z,1.1
2018-11-06T01:17:37.346Z,1.1
2018-11-06T01:18:27.226Z,1.1
2018-11-06T01:19:17.492Z,1.1
2018-11-06T01:20:07.356Z,1.1
2018-11-06T01:20:57.887Z,1
2018-11-06T01:21:47.936Z,1
2018-11-06T01:22:37.989Z,0.9
2018-11-06T01:23:27.806Z,0.9
2018-11-06T01:24:17.941Z,0.9
2018-11-06T01:25:07.629Z,0.9
2018-11-06T01:25:57.781Z,0.9
2018-11-06T01:26:48.023Z,0.9
2018-11-06T01:27:38.324Z,0.9
2018-11-06T01:28:28.440Z,0.9
2018-11-06T01:29:18.189Z,0.8
2018-11-06T01:30:08.811Z,0.8
2018-11-06T01:30:58.333Z,0.8
2018-11-06T01:31:48.395Z,0.8
2018-11-06T01:32:38.795Z,0.8
2018-11-06T01:33:29.086Z,0.8
2018-11-06T01:34:18.861Z,0.7
2018-11-06T01:35:09.248Z,0.8
2018-11-06T01:35:58.992Z,0.7
2018-11-06T01:36:49.038Z,0.7
2018-11-06T01:37:38.818Z,0.7
2018-11-06T01:38:29.692Z,0.7
2018-11-06T01:39:18.455Z,0.7
2018-11-06T01:40:09.323Z,0.6
2018-11-06T01:40:58.758Z,0.6
2018-11-06T01:41:49.382Z,0.6
2018-11-06T01:42:38.967Z,0.6
2018-11-06T01:43:29.802Z,0.6
2018-11-06T01:44:19.337Z,0.6
2018-11-06T01:45:09.635Z,0.6
2018-11-06T01:46:00.230Z,0.6
2018-11-06T01:46:49.759Z,0.6
2018-11-06T01:47:39.534Z,0.6
2018-11-06T01:48:29.874Z,0.6
2018-11-06T01:49:19.977Z,0.6
2018-11-06T01:50:09.717Z,0.6
2018-11-06T01:51:00.065Z,0.5
2018-11-06T01:51:50.114Z,0.5
2018-11-06T01:52:40.210Z,0.5
2018-11-06T01:53:29.985Z,0.5
2018-11-06T01:54:20.599Z,0.5
2018-11-06T01:55:10.067Z,0.5
2018-11-06T01:56:00.657Z,0.5
2018-11-06T01:56:50.501Z,0.4
2018-11-06T01:57:40.266Z,0.4
2018-11-06T01:58:30.044Z,0.4
2018-11-06T01:59:20.659Z,0.4
2018-11-06T02:00:10.747Z,0.4
2018-11-06T02:01:00.787Z,0.4
2018-11-06T02:01:51.122Z,0.3
2018-11-06T02:02:40.658Z,0.3
2018-11-06T02:03:30.717Z,0.3
2018-11-06T02:04:21.056Z,0.3
2018-11-06T02:05:10.816Z,0.3
2018-11-06T02:06:00.871Z,0.4
2018-11-06T02:06:51.226Z,0.4
2018-11-06T02:07:41.306Z,0.4
2018-11-06T02:08:31.066Z,0.4
2018-11-06T02:09:21.106Z,0.4
2018-11-06T02:10:11.158Z,0.4
2018-11-06T02:11:00.946Z,0.4
2018-11-06T02:11:51.006Z,0.3
2018-11-06T02:12:41.630Z,0.4
2018-11-06T02:13:31.696Z,0.3
2018-11-06T02:14:21.776Z,0.3
2018-11-06T02:15:11.555Z,0.3
2018-11-06T02:16:01.318Z,0.4
2018-11-06T02:16:51.360Z,0.3
2018-11-06T02:17:41.813Z,0.3
2018-11-06T02:18:32.335Z,0.3
2018-11-06T02:19:22.430Z,0.4
2018-11-06T02:20:12.495Z,0.3
2018-11-06T02:21:02.538Z,0.3
2018-11-06T02:21:52.298Z,0.3
2018-11-06T02:22:42.670Z,0.4
2018-11-06T02:23:31.865Z,0.3
2018-11-06T02:24:22.183Z,0.3
2018-11-06T02:25:12.537Z,0.3
2018-11-06T02:26:02.048Z,0.3
2018-11-06T02:26:52.667Z,0.3
2018-11-06T02:27:43.045Z,0.3
2018-11-06T02:28:32.582Z,0.3
2018-11-06T02:29:22.801Z,0.3
2018-11-06T02:30:13.459Z,0.4
2018-11-06T02:31:02.687Z,0.4
2018-11-06T02:31:53.322Z,0.3
2018-11-06T02:32:42.839Z,0.3
2018-11-06T02:33:32.610Z,0.3
2018-11-06T02:34:23.207Z,0.3
2018-11-06T02:35:13.590Z,0.4
2018-11-06T02:36:03.347Z,0.3
2018-11-06T02:36:53.700Z,0.3
2018-11-06T02:37:43.177Z,0.3
2018-11-06T02:38:33.222Z,0.3
2018-11-06T02:39:23.279Z,0.3
2018-11-06T02:40:13.620Z,0.3
2018-11-06T02:41:03.507Z,0.3
2018-11-06T02:41:53.775Z,0.4
2018-11-06T02:42:43.823Z,0.3
2018-11-06T02:43:33.594Z,0.3
2018-11-06T02:44:23.938Z,0.3
2018-11-06T02:45:14.017Z,0.3
2018-11-06T02:46:04.083Z,0.3
2018-11-06T02:46:54.105Z,0.3
2018-11-06T02:47:43.891Z,0.3
2018-11-06T02:48:34.532Z,0.3
2018-11-06T02:49:24.009Z,0.3
2018-11-06T02:50:13.897Z,0.3
2018-11-06T02:51:03.834Z,0.3
2018-11-06T02:51:54.491Z,0.2
2018-11-06T02:52:44.551Z,0.2
2018-11-06T02:53:34.629Z,0.2
2018-11-06T02:54:24.758Z,0.1
2018-11-06T02:55:15.007Z,0.1
2018-11-06T02:56:05.644Z,0.1
2018-11-06T02:56:55.118Z,0.1
2018-11-06T02:57:45.147Z,0.1
2018-11-06T02:58:34.965Z,0.1
2018-11-06T02:59:24.758Z,0.2
2018-11-06T03:00:15.325Z,0.1
2018-11-06T03:01:05.412Z,0.1
2018-11-06T03:01:54.900Z,0.1
2018-11-06T03:02:45.374Z,0.1
2018-11-06T03:03:34.852Z,0.1
2018-11-06T03:04:24.803Z,0.1
2018-11-06T03:05:15.448Z,0
2018-11-06T03:06:05.483Z,0
2018-11-06T03:06:56.088Z,0
2018-11-06T03:07:45.854Z,0
2018-11-06T03:08:35.406Z,0.1
2018-11-06T03:09:26.025Z,0
2018-11-06T03:10:15.909Z,0
2018-11-06T03:11:05.597Z,0
2018-11-06T03:11:55.935Z,0
2018-11-06T03:12:45.999Z,0
2018-11-06T03:13:36.040Z,0
2018-11-06T03:14:25.623Z,-0.1
2018-11-06T03:15:15.894Z,-0.1
2018-11-06T03:16:06.040Z,0
2018-11-06T03:16:55.959Z,0
2018-11-06T03:17:46.357Z,0
2018-11-06T03:18:36.487Z,-0.1
2018-11-06T03:19:26.491Z,0
2018-11-06T03:20:16.810Z,0
2018-11-06T03:21:06.374Z,0
2018-11-06T03:21:56.654Z,-0.1
2018-11-06T03:22:47.039Z,-0.1
2018-11-06T03:23:37.024Z,-0.1
2018-11-06T03:24:27.126Z,-0.2
2018-11-06T03:25:17.212Z,-0.2
2018-11-06T03:26:06.957Z,-0.3
2018-11-06T03:26:56.914Z,-0.3
2018-11-06T03:27:47.074Z,-0.3
2018-11-06T03:28:37.408Z,-0.3
2018-11-06T03:29:27.209Z,-0.4
2018-11-06T03:30:17.541Z,-0.4
2018-11-06T03:31:07.352Z,-0.4
2018-11-06T03:31:57.091Z,-0.4
2018-11-06T03:32:47.466Z,-0.4
2018-11-06T03:33:38.027Z,-0.4
2018-11-06T03:34:27.036Z,-0.4
2018-11-06T03:35:17.052Z,-0.4
2018-11-06T03:36:07.673Z,-0.4
2018-11-06T03:36:58.019Z,-0.4
2018-11-06T03:37:47.516Z,-0.4
2018-11-06T03:38:37.847Z,-0.4
2018-11-06T03:39:28.011Z,-0.4
2018-11-06T03:40:17.493Z,-0.4
2018-11-06T03:41:07.863Z,-0.5
2018-11-06T03:41:58.376Z,-0.5
2018-11-06T03:42:47.886Z,-0.5
2018-11-06T03:43:38.027Z,-0.6
2018-11-06T03:44:27.993Z,-0.6
2018-11-06T03:45:18.636Z,-0.6
2018-11-06T03:46:08.653Z,-0.6
2018-11-06T03:46:58.473Z,-0.6
2018-11-06T03:47:48.788Z,-0.6
2018-11-06T03:48:38.572Z,-0.6
2018-11-06T03:49:28.908Z,-0.7
2018-11-06T03:50:18.210Z,-0.7
2018-11-06T03:51:08.250Z,-0.8
2018-11-06T03:51:58.832Z,-0.8
2018-11-06T03:52:49.176Z,-0.8
2018-11-06T03:53:38.666Z,-0.8
2018-11-06T03:54:29.270Z,-0.8
2018-11-06T03:55:18.437Z,-0.8
2018-11-06T03:56:08.845Z,-0.9
2018-11-06T03:56:59.725Z,-0.9
2018-11-06T03:57:49.255Z,-0.9
2018-11-06T04:05:19.760Z,-1
2018-11-06T04:06:09.573Z,-1
2018-11-06T04:06:59.905Z,-1
2018-11-06T04:07:49.952Z,-1
2018-11-06T04:08:40.014Z,-1
2018-11-06T04:09:30.349Z,-1
2018-11-06T04:10:20.447Z,-1.1
2018-11-06T04:11:10.489Z,-1.1
2018-11-06T04:12:00.806Z,-1.1
2018-11-06T04:12:49.747Z,-1.1
2018-11-06T04:13:40.396Z,-1.1
2018-11-06T04:14:29.977Z,-1.2
2018-11-06T04:15:20.811Z,-1.2
2018-11-06T04:16:10.885Z,-1.2
2018-11-06T04:17:00.598Z,-1.2
2018-11-06T04:17:51.026Z,-1.2
2018-11-06T04:18:40.216Z,-1.2
2018-11-06T04:19:30.238Z,-1.3
2018-11-06T04:20:20.601Z,-1.3
2018-11-06T04:21:10.943Z,-1.3
2018-11-06T04:22:01.279Z,-1.3
2018-11-06T04:22:51.340Z,-1.3
2018-11-06T04:23:41.146Z,-1.4
2018-11-06T04:24:30.883Z,-1.3
2018-11-06T04:25:22.607Z,-1.3
2018-11-06T04:26:11.031Z,-1.4
2018-11-06T04:27:01.084Z,-1.4
2018-11-06T04:27:51.418Z,-1.4
2018-11-06T04:28:41.460Z,-1.4
2018-11-06T04:29:31.826Z,-1.4
2018-11-06T04:30:22.438Z,-1.4
2018-11-06T04:31:11.391Z,-1.4
2018-11-06T04:32:02.016Z,-1.4
2018-11-06T04:32:52.086Z,-1.4
2018-11-06T04:33:41.280Z,-1.3
2018-11-06T04:34:31.888Z,-1.3
2018-11-06T04:35:21.395Z,-1.3
2018-11-06T04:36:12.341Z,-1.4
2018-11-06T04:54:14.061Z,-1.6
2018-11-06T04:55:04.127Z,-1.6
2018-11-06T04:55:53.010Z,-1.6
2018-11-06T04:56:43.958Z,-1.6
2018-11-06T04:57:33.725Z,-1.6
2018-11-06T04:58:24.026Z,-1.6
2018-11-06T04:59:14.722Z,-1.6
2018-11-06T05:00:04.000Z,-1.6
2018-11-06T05:00:53.781Z,-1.6
2018-11-06T05:01:44.107Z,-1.7
2018-11-06T05:02:33.099Z,-1.7
2018-11-06T05:03:24.452Z,-1.7
2018-11-06T05:04:13.349Z,-1.7
2018-11-06T05:05:04.564Z,-1.7
2018-11-06T05:05:54.109Z,-1.8
2018-11-06T05:06:44.659Z,-1.8
2018-11-06T05:07:35.236Z,-1.7
2018-11-06T05:08:24.855Z,-1.8
2018-11-06T05:09:14.542Z,-1.8
2018-11-06T05:10:05.237Z,-1.8
2018-11-06T05:11:44.779Z,-1.8
2018-11-06T05:12:34.600Z,-1.8
2018-11-06T05:13:40.073Z,-1.8
2018-11-06T05:14:15.368Z,-1.9
2018-11-06T05:15:20.198Z,-1.9
2018-11-06T05:15:54.566Z,-1.9
2018-11-06T05:16:45.416Z,-1.9
2018-11-06T05:17:35.150Z,-1.9
2018-11-06T05:18:25.540Z,-1.9
2018-11-06T05:19:15.379Z,-1.9
2018-11-06T05:20:05.303Z,-1.9
2018-11-06T05:20:55.925Z,-1.9
2018-11-06T05:21:45.977Z,-1.9
2018-11-06T05:22:35.323Z,-1.9
2018-11-06T05:23:25.961Z,-1.9
2018-11-06T05:24:15.445Z,-1.9
2018-11-06T05:25:06.259Z,-1.9
2018-11-06T05:25:55.833Z,-1.8
2018-11-06T05:26:45.610Z,-1.8
2018-11-06T05:27:36.296Z,-1.9
2018-11-06T05:28:26.123Z,-1.8
2018-11-06T05:29:15.795Z,-1.8
2018-11-06T05:30:06.058Z,-1.8
2018-11-06T05:30:56.023Z,-1.8
2018-11-06T05:31:46.470Z,-1.8
2018-11-06T05:32:36.161Z,-1.8
2018-11-06T05:33:26.236Z,-1.7
2018-11-06T09:08:42.883Z,64.9
2018-11-06T09:09:32.162Z,65.1
2018-11-06T09:10:22.927Z,65
2018-11-06T09:11:12.922Z,65
2018-11-06T09:12:02.534Z,65.1
2018-11-06T09:12:53.089Z,65.3
2018-11-06T09:13:42.527Z,65.4
2018-11-06T09:14:33.019Z,65.5
2018-11-06T09:15:23.067Z,65.6
2018-11-06T09:16:13.084Z,65.6
2018-11-06T09:17:03.358Z,65.8
2018-11-06T09:17:53.234Z,65.8
2018-11-06T09:18:42.911Z,66
2018-11-06T09:19:33.251Z,66.3
2018-11-06T09:20:23.001Z,66.4
2018-11-06T09:21:12.801Z,66.4
2018-11-06T09:22:03.719Z,66.4
2018-11-06T09:22:53.198Z,66.6
2018-11-06T09:23:43.530Z,66.6
2018-11-06T09:24:33.397Z,66.6
2018-11-06T09:25:23.658Z,66.6
2018-11-06T09:26:13.226Z,66.6
2018-11-06T09:27:03.305Z,66.8
2018-11-06T09:27:53.944Z,66.9
2018-11-06T09:28:43.993Z,67
2018-11-06T09:29:33.963Z,67.1
2018-11-06T09:30:24.331Z,67.2
2018-11-06T09:31:13.901Z,67.1
2018-11-06T09:32:03.666Z,67.1
2018-11-06T09:32:54.258Z,67.3
2018-11-06T09:33:43.966Z,67.4
2018-11-06T09:34:34.295Z,67.4
2018-11-06T09:35:24.451Z,67.5
2018-11-06T09:36:14.161Z,67.6
2018-11-06T09:37:04.805Z,67.6
2018-11-06T09:37:54.390Z,67.6
2018-11-06T09:38:44.637Z,67.8
2018-11-06T09:39:34.745Z,67.8
2018-11-06T09:40:24.722Z,67.9
2018-11-06T09:41:14.937Z,68
2018-11-06T09:42:04.660Z,67.9
2018-11-06T09:42:55.210Z,67.9
2018-11-06T09:43:45.008Z,67.6
2018-11-06T09:44:34.404Z,67.7
2018-11-06T09:45:25.017Z,67.9
2018-11-06T09:46:15.172Z,68.1
2018-11-06T09:47:04.957Z,68.2
2018-11-06T09:47:55.314Z,68.3
2018-11-06T09:48:45.835Z,68.4
2018-11-06T09:49:34.940Z,68.6
2018-11-06T09:50:24.994Z,68.6
2018-11-06T09:51:14.986Z,68.8
2018-11-06T09:52:06.211Z,68.9
2018-11-06T09:52:55.349Z,69
2018-11-06T09:53:45.449Z,69.1
2018-11-06T09:54:35.782Z,69.1
2018-11-06T09:55:25.656Z,69.2
2018-11-06T09:56:15.624Z,69.3
2018-11-06T09:57:06.242Z,69.1
2018-11-06T09:57:56.037Z,69.2
2018-11-06T09:58:45.796Z,69.3
2018-11-06T09:59:36.466Z,69.3
2018-11-06T10:00:26.037Z,69.3
2018-11-06T10:01:16.367Z,69.3
2018-11-06T10:02:05.934Z,69.2
2018-11-06T10:02:56.676Z,69.3
2018-11-06T10:03:46.734Z,69.4
2018-11-06T10:04:36.106Z,69.3
2018-11-06T10:05:26.253Z,69.3
2018-11-06T10:06:18.029Z,69.4
2018-11-06T10:07:08.585Z,69.5
2018-11-06T10:07:57.299Z,69.5
2018-11-06T10:08:46.791Z,69.6
2018-11-06T10:09:37.179Z,69.6
2018-11-06T10:10:26.736Z,69.6
2018-11-06T10:11:17.041Z,69.6
2018-11-06T10:12:07.046Z,69.6
2018-11-06T10:12:57.430Z,69.4
2018-11-06T10:13:47.718Z,69.3
2018-11-06T10:14:36.746Z,69.1
2018-11-06T10:15:27.663Z,69.2
2018-11-06T10:16:17.334Z,69.3
2018-11-06T10:17:07.042Z,69.3
2018-11-06T10:17:57.481Z,69.4
2018-11-06T10:18:46.780Z,69.6
2018-11-06T10:19:37.577Z,69.6
2018-11-06T10:20:27.172Z,69.6
2018-11-06T10:21:17.711Z,69.6
2018-11-06T10:22:07.765Z,69.6
2018-11-06T10:22:57.542Z,69.6
2018-11-06T10:23:47.727Z,69.8
2018-11-06T10:24:38.498Z,69.9
2018-11-06T10:25:28.279Z,69.8
2018-11-06T10:26:18.070Z,69.5
2018-11-06T10:27:07.902Z,69.3
2018-11-06T10:27:58.467Z,69.3
2018-11-06T10:28:48.285Z,69.4
2018-11-06T10:29:38.032Z,69.4
2018-11-06T10:30:28.082Z,69.5
2018-11-06T10:31:17.660Z,69.5
2018-11-06T10:32:08.796Z,69.4
2018-11-06T10:32:58.565Z,69.3
2018-11-06T10:33:48.627Z,69.3
2018-11-06T10:34:38.964Z,69.3
2018-11-06T10:35:28.179Z,69.3
2018-11-06T10:36:18.822Z,69.5
2018-11-06T10:37:08.866Z,69.4
2018-11-06T10:37:58.464Z,69.4
2018-11-06T10:38:48.895Z,69.5
2018-11-06T10:39:39.159Z,69.6
2018-11-06T10:40:29.136Z,69.8
2018-11-06T10:41:18.587Z,69.8
2018-11-06T10:42:08.762Z,69.8
2018-11-06T10:42:59.089Z,69.7
2018-11-06T10:43:49.866Z,69.6
2018-11-06T10:44:39.944Z,69.6
2018-11-06T10:45:29.199Z,69.6
2018-11-06T10:46:19.251Z,69.5
2018-11-06T10:47:09.889Z,69.6
2018-11-06T10:47:59.194Z,69.7
2018-11-06T10:48:50.000Z,69.8
2018-11-06T10:49:39.289Z,69.7
2018-11-06T10:50:29.847Z,69.6
2018-11-06T10:51:19.984Z,69.4
2018-11-06T10:52:59.730Z,69.1
2018-11-06T10:53:49.521Z,69.1
2018-11-06T10:54:40.430Z,69.2
2018-11-06T10:55:30.214Z,69.4
2018-11-06T10:56:20.563Z,69.6
2018-11-06T10:57:10.338Z,69.7
2018-11-06T10:58:00.577Z,69.6
2018-11-06T10:58:50.246Z,69.7
2018-11-06T10:59:40.541Z,69.7
2018-11-06T11:00:30.345Z,69.7
2018-11-06T11:01:20.431Z,69.6
2018-11-06T11:02:11.009Z,69.5
2018-11-06T11:03:00.457Z,69.4
2018-11-06T11:03:50.923Z,69.5
2018-11-06T11:04:41.131Z,69.6
2018-11-06T11:05:30.930Z,69.6
2018-11-06T11:06:21.000Z,69.7
2018-11-06T11:07:10.775Z,69.8
2018-11-06T11:08:01.024Z,69.6
2018-11-06T11:08:51.465Z,69.6
2018-11-06T11:09:41.224Z,69.5
2018-11-06T11:10:31.555Z,69.5
2018-11-06T11:11:21.375Z,69.5
2018-11-06T11:12:10.839Z,69.6
2018-11-06T11:13:01.803Z,69.6
2018-11-06T11:13:50.754Z,69.6
2018-11-06T11:14:41.284Z,69.6
2018-11-06T11:15:31.365Z,69.5
2018-11-06T11:16:22.067Z,69.6
2018-11-06T11:17:11.480Z,69.4
2018-11-06T11:18:01.655Z,69.4
2018-11-06T11:18:51.892Z,69.4
2018-11-06T11:19:41.689Z,69.5
2018-11-06T11:20:31.772Z,69.5
2018-11-06T11:21:21.804Z,69.6
2018-11-06T11:22:12.134Z,69.6
2018-11-06T11:23:01.721Z,69.5
2018-11-06T11:23:52.124Z,69.5
2018-11-06T11:24:42.324Z,69.5
2018-11-06T11:25:32.610Z,69.4
2018-11-06T11:26:22.174Z,69.4
2018-11-06T11:27:12.894Z,69.5
2018-11-06T11:28:02.280Z,69.6
2018-11-06T11:28:52.223Z,69.4
2018-11-06T11:29:42.106Z,69.4
2018-11-06T11:30:32.186Z,69.4
2018-11-06T11:31:22.872Z,69.4
2018-11-06T11:32:13.126Z,69.3
2018-11-06T11:33:02.971Z,69.2
2018-11-06T11:33:53.239Z,69.1
2018-11-06T11:34:42.174Z,69
2018-11-06T11:35:32.621Z,68.8
2018-11-06T11:36:23.171Z,68.6
2018-11-06T11:37:13.473Z,68.3
2018-11-06T11:38:03.103Z,68.1
2018-11-06T11:38:53.353Z,68.2
2018-11-06T11:39:43.550Z,68.4
2018-11-06T11:40:33.558Z,68.4
2018-11-06T11:41:23.556Z,68.3
2018-11-06T11:42:13.829Z,68.2
2018-11-06T11:43:03.173Z,68.1
2018-11-06T11:43:53.763Z,68.2
2018-11-06T11:44:42.823Z,68.3
2018-11-06T11:45:33.880Z,68.2
2018-11-06T11:46:23.721Z,68.1
2018-11-06T11:47:13.669Z,68
2018-11-06T11:48:04.101Z,67.9
2018-11-06T11:48:54.090Z,67.8
2018-11-06T11:49:43.864Z,67.5
2018-11-06T11:50:33.928Z,67.3
2018-11-06T11:51:23.778Z,67.1
2018-11-06T11:52:14.302Z,66.9
2018-11-06T11:53:04.132Z,66.8
2018-11-06T11:53:54.245Z,66.5
2018-11-06T11:54:44.513Z,66.4
2018-11-06T11:55:34.856Z,66.2
2018-11-06T11:56:24.328Z,66.2
2018-11-06T11:57:14.369Z,66.2
2018-11-06T11:58:04.749Z,65.9
2018-11-06T11:58:54.842Z,65.8
2018-11-06T11:59:44.980Z,65.7
2018-11-06T12:00:35.017Z,65.5
2018-11-06T12:01:24.707Z,65.2
2018-11-06T12:02:15.751Z,65.1
2018-11-06T12:03:04.642Z,64.9
2018-11-06T12:03:55.169Z,64.9
2018-11-06T12:04:45.232Z,65.3
2018-11-06T12:05:35.316Z,65.8
2018-11-06T12:06:25.371Z,66.3
2018-11-06T12:07:15.725Z,66.8
2018-11-06T12:08:05.694Z,67.3
2018-11-06T12:08:55.552Z,67.8
2018-11-06T12:09:45.879Z,68.1
2018-11-06T12:10:35.642Z,68.5
2018-11-06T12:11:25.849Z,68.8
2018-11-06T12:12:16.058Z,69.1
2018-11-06T12:13:05.864Z,69.5
2018-11-06T12:13:56.207Z,69.8
2018-11-06T12:14:45.996Z,70
2018-11-06T12:15:36.056Z,70.3
2018-11-06T12:16:26.084Z,70.3
2018-11-06T12:17:16.560Z,70.5
2018-11-06T12:18:06.048Z,70.8
2018-11-06T12:18:56.561Z,71
2018-11-06T12:19:46.134Z,71.1
2018-11-06T12:20:36.967Z,71.2
2018-11-06T12:21:26.455Z,71.1
2018-11-06T12:22:15.933Z,71
2018-11-06T12:23:06.826Z,71
2018-11-06T12:23:56.576Z,71
2018-11-06T12:24:46.844Z,71.1
2018-11-06T12:25:37.552Z,71.3
2018-11-06T12:26:27.180Z,71.3
2018-11-06T12:27:16.880Z,71.2
2018-11-06T12:28:06.173Z,71.1
2018-11-06T12:28:56.325Z,71
2018-11-06T12:29:47.048Z,70.9
2018-11-06T12:30:37.134Z,70.9
2018-11-06T12:31:27.218Z,70.8
2018-11-06T12:32:17.240Z,70.8
2018-11-06T12:33:07.324Z,70.6
2018-11-06T12:33:57.665Z,70.6
2018-11-06T12:34:47.525Z,70.5
2018-11-06T12:35:37.495Z,70.5
2018-11-06T12:36:27.816Z,70.5
2018-11-06T12:37:17.324Z,70.3
2018-11-06T12:38:07.190Z,70.2
2018-11-06T12:38:57.180Z,70.3
2018-11-06T12:39:47.783Z,70.4
2018-11-06T12:40:37.947Z,70.4
2018-11-06T12:41:28.167Z,70.2
2018-11-06T12:42:17.704Z,69.9
2018-11-06T12:43:08.123Z,69.6
2018-11-06T12:43:58.112Z,69.5
2018-11-06T12:44:47.684Z,69.4
2018-11-06T12:45:38.259Z,69.4
2018-11-06T12:46:27.997Z,69.4
2018-11-06T12:47:18.060Z,69.1
2018-11-06T12:48:07.906Z,68.8
2018-11-06T12:48:58.265Z,68.6
2018-11-06T12:49:48.339Z,68.4
2018-11-06T12:50:38.109Z,68.4
2018-11-06T12:51:28.926Z,68.5
2018-11-06T12:52:18.452Z,68.4
2018-11-06T12:53:08.761Z,68.3
2018-11-06T12:53:58.556Z,68.3
2018-11-06T12:54:49.152Z,67.8
2018-11-06T12:55:38.101Z,67.4
2018-11-06T12:56:29.019Z,67.2
2018-11-06T12:57:19.399Z,67
2018-11-06T12:58:09.436Z,66.8
2018-11-06T12:58:58.626Z,66.6
2018-11-06T12:59:48.980Z,66.3
2018-11-06T13:00:39.313Z,66.1
2018-11-06T13:01:29.129Z,66
2018-11-06T13:02:19.463Z,65.7
2018-11-06T13:03:09.627Z,65.4
2018-11-06T13:03:59.271Z,65.2
2018-11-06T13:04:49.153Z,65.1
2018-11-06T13:05:38.910Z,64.8
2018-11-06T13:06:30.025Z,64.4
2018-11-06T13:07:19.603Z,64.3
2018-11-06T13:08:09.861Z,63.9
2018-11-06T13:08:59.640Z,63.6
2018-11-06T13:09:50.186Z,63.3
2018-11-06T13:10:40.328Z,62.9
2018-11-06T13:11:30.106Z,62.6
2018-11-06T13:12:20.228Z,62.4
2018-11-06T13:13:09.770Z,62.2
2018-11-06T13:14:00.023Z,61.9
2018-11-06T13:14:50.032Z,61.6
2018-11-06T13:15:41.085Z,61.4
2018-11-06T13:16:30.748Z,61.3
2018-11-06T13:17:20.773Z,61.1
2018-11-06T13:18:10.315Z,60.8
2018-11-06T13:19:00.399Z,60.4
2018-11-06T13:19:50.495Z,60
2018-11-06T13:20:40.472Z,59.7
2018-11-06T13:21:30.870Z,59.4
2018-11-06T13:22:20.910Z,59.2
2018-11-06T13:23:11.282Z,58.8
2018-11-06T13:24:00.837Z,58.5
2018-11-06T13:24:50.795Z,58.3
2018-11-06T13:25:41.633Z,58
2018-11-06T13:26:31.901Z,57.8
2018-11-06T13:27:21.542Z,57.5
2018-11-06T13:28:11.185Z,57.1
2018-11-06T13:29:01.117Z,56.8
2018-11-06T13:29:51.272Z,56.5
2018-11-06T13:30:41.077Z,56.1
2018-11-06T13:31:31.295Z,55.8
2018-11-06T13:32:21.220Z,55.6
2018-11-06T13:33:11.407Z,55.3
2018-11-06T13:34:01.263Z,55.1
2018-11-06T13:34:52.095Z,54.8
2018-11-06T13:35:41.484Z,54.4
2018-11-06T13:36:31.929Z,54.1
2018-11-06T13:37:21.805Z,53.8
2018-11-06T13:38:12.382Z,53.5
2018-11-06T13:39:02.429Z,53.2
2018-11-06T13:39:52.188Z,52.8
2018-11-06T13:40:41.954Z,52.5
2018-11-06T13:41:32.601Z,52.3
2018-11-06T13:43:12.432Z,51.7
2018-11-06T13:44:02.602Z,51.5
2018-11-06T13:44:52.828Z,51.3
2018-11-06T13:45:43.501Z,50.9
2018-11-06T13:46:32.406Z,50.5
2018-11-06T13:47:23.038Z,50.2
2018-11-06T13:48:12.420Z,49.9
2018-11-06T13:49:02.887Z,49.7
2018-11-06T13:49:52.647Z,49.5
2018-11-06T13:50:43.523Z,49.3
2018-11-06T14:07:33.085Z,43.6
2018-11-06T14:08:23.125Z,43.2
2018-11-06T14:09:12.943Z,42.9
2018-11-06T14:10:03.667Z,42.6
2018-11-06T14:10:53.606Z,42.3
2018-11-06T14:11:43.390Z,42
2018-11-06T14:12:33.752Z,41.8
2018-11-06T14:13:23.504Z,41.5
2018-11-06T14:14:13.869Z,41.2
2018-11-06T14:15:03.917Z,40.9
2018-11-06T14:15:53.677Z,40.6
2018-11-06T14:16:43.922Z,40.4
2018-11-06T14:17:33.534Z,40.1
2018-11-06T14:18:24.149Z,39.8
2018-11-06T14:19:14.320Z,39.4
2018-11-06T14:20:04.594Z,39.1
2018-11-06T14:20:54.095Z,38.8
2018-11-06T14:21:44.754Z,38.6
2018-11-06T14:22:34.206Z,38.3
2018-11-06T14:23:24.044Z,38.1
2018-11-06T14:24:14.883Z,37.8
2018-11-06T14:25:04.664Z,37.5
2018-11-06T14:25:54.442Z,37.3
2018-11-06T14:26:44.519Z,37.1
2018-11-06T14:27:35.338Z,36.8
2018-11-06T14:28:24.930Z,36.4
2018-11-06T14:29:14.770Z,36.2
2018-11-06T14:30:05.329Z,35.9
2018-11-06T14:30:54.607Z,35.8
2018-11-06T14:31:45.270Z,35.6
2018-11-06T14:32:34.630Z,35.3
2018-11-06T14:33:24.392Z,34.9
2018-11-06T14:34:14.787Z,34.7
2018-11-06T14:35:05.197Z,34.4
2018-11-06T14:35:56.436Z,34.1
2018-11-06T14:36:45.008Z,33.8
2018-11-06T14:37:34.700Z,33.5
2018-11-06T14:38:25.337Z,33.3
2018-11-06T14:39:15.392Z,33
2018-11-06T14:40:04.967Z,32.8
2018-11-06T14:40:55.821Z,32.5
2018-11-06T14:41:45.380Z,32.3
2018-11-06T14:42:35.514Z,32
2018-11-06T14:43:26.074Z,31.8
2018-11-06T14:44:15.449Z,31.5
2018-11-06T14:45:05.647Z,31.2
2018-11-06T14:45:56.484Z,31
2018-11-06T14:46:45.950Z,30.8
2018-11-06T14:47:36.468Z,30.5
2018-11-06T14:48:26.099Z,30.3
2018-11-06T14:49:16.533Z,30
2018-11-06T14:50:06.491Z,29.8
2018-11-06T14:50:56.838Z,29.6
2018-11-06T14:51:46.339Z,29.3
2018-11-06T14:52:36.686Z,29
2018-11-06T14:53:26.482Z,28.8
2018-11-06T14:54:16.198Z,28.6
2018-11-06T14:55:07.181Z,28.4
2018-11-06T14:55:56.959Z,28.1
2018-11-06T14:56:47.704Z,27.9
2018-11-06T14:57:37.338Z,27.6
2018-11-06T14:58:26.893Z,27.4
2018-11-06T14:59:17.449Z,27.1
2018-11-06T15:00:07.223Z,26.9
2018-11-06T15:00:57.575Z,26.7
2018-11-06T15:01:47.630Z,26.5
2018-11-06T15:02:37.712Z,26.3
2018-11-06T15:03:26.967Z,26.1
2018-11-06T15:04:16.949Z,25.8
2018-11-06T15:05:07.532Z,25.6
2018-11-06T15:05:57.918Z,25.3
2018-11-06T15:06:47.510Z,25.1
2018-11-06T15:07:37.777Z,24.9
2018-11-06T15:08:27.625Z,24.7
2018-11-06T15:09:17.310Z,24.4
2018-11-06T15:10:07.377Z,24.3
2018-11-06T15:10:57.331Z,24
2018-11-06T15:11:48.092Z,23.8
2018-11-06T15:12:37.881Z,23.5
2018-11-06T15:13:28.020Z,23.3
2018-11-06T15:14:18.072Z,23.1
2018-11-06T15:15:08.147Z,22.8
2018-11-06T15:15:57.807Z,22.6
2018-11-06T15:16:47.755Z,22.4
2018-11-06T15:17:38.213Z,22.2
2018-11-06T15:18:28.864Z,22
2018-11-06T15:19:18.139Z,21.8
2018-11-06T15:20:08.710Z,21.6
2018-11-06T15:20:58.845Z,21.4
2018-11-06T15:21:48.825Z,21.2
2018-11-06T15:22:38.454Z,21
2018-11-06T15:23:28.780Z,20.8
2018-11-06T15:24:18.861Z,20.6
2018-11-06T15:25:08.359Z,20.4
2018-11-06T15:25:58.914Z,20.3
2018-11-06T15:26:49.469Z,20.1
2018-11-06T15:27:38.847Z,19.9
2018-11-06T15:28:29.014Z,19.8
2018-11-06T15:29:18.946Z,19.6
2018-11-06T15:30:09.743Z,19.4
2018-11-06T15:30:59.489Z,19.2
2018-11-06T15:31:49.554Z,19.1
2018-11-06T15:32:39.401Z,18.9
2018-11-06T15:33:28.763Z,18.8
2018-11-06T15:34:19.439Z,18.6
2018-11-06T15:35:10.037Z,18.4
2018-11-06T15:35:59.254Z,18.3
2018-11-06T15:36:49.875Z,18.1
2018-11-06T15:37:40.469Z,18
2018-11-06T15:38:30.022Z,17.9
2018-11-06T15:39:20.364Z,17.8
2018-11-06T15:40:10.173Z,17.6
2018-11-06T15:41:01.604Z,17.4
2018-11-06T15:41:51.165Z,17.3
2018-11-06T15:42:40.874Z,17.2
2018-11-06T15:43:30.379Z,17.1
2018-11-06T15:44:20.166Z,16.9
2018-11-06T15:45:10.095Z,16.8
2018-11-06T15:46:00.551Z,16.7
2018-11-06T15:46:50.660Z,16.6
2018-11-06T15:47:40.794Z,16.4
2018-11-06T15:48:30.197Z,16.3
2018-11-06T15:49:20.817Z,16.2